Time;durP1;ratioP1;P1;durP2;ratioP2;P2;SDS_P1;SDS_P2;PMS_P1;PMS_P2;Temp;Humidity;BMP_temperature;BMP_pressure;BME280_temperature;BME280_humidity;BME280_pressure;Samples;Min_cycle;Max_cycle;Signal;HPM_P1;HPM_P2
2024/01/19 00:00:59;;;;;;;2.63;1.00;;;;;;;;;;5075673;28;20281;-82
2024/01/19 00:03:25;;;;;;;1.90;0.90;;;;;;;;;;5087235;28;20302;-85
2024/01/19 00:05:51;;;;;;;1.97;0.80;;;;;;;;;;5077333;28;20267;-84
2024/01/19 00:08:17;;;;;;;1.30;0.70;;;;;;;;;;5069503;28;20051;-88
2024/01/19 00:10:43;;;;;;;2.40;0.73;;;;;;;;;;5075499;28;20289;-90
2024/01/19 00:13:09;;;;;;;11.90;2.23;;;;;;;;;;5079828;28;20167;-87
2024/01/19 00:15:35;;;;;;;6.40;1.83;;;;;;;;;;5077681;28;20025;-89
2024/01/19 00:18:04;;;;;;;8.73;2.57;;;;;;;;;;5061700;28;21737;-88
2024/01/19 00:20:32;;;;;;;4.60;2.00;;;;;;;;;;5071093;28;20039;-84
2024/01/19 00:23:00;;;;;;;11.63;2.80;;;;;;;;;;5049407;28;20282;-87
2024/01/19 00:25:26;;;;;;;8.57;2.40;;;;;;;;;;5069966;28;20298;-86
2024/01/19 00:27:52;;;;;;;8.63;2.73;;;;;;;;;;5049665;28;20278;-84
2024/01/19 00:30:18;;;;;;;5.63;1.47;;;;;;;;;;5071005;28;20088;-85
2024/01/19 00:32:44;;;;;;;9.37;2.03;;;;;;;;;;5073451;28;20036;-88
2024/01/19 00:35:12;;;;;;;9.27;2.13;;;;;;;;;;5072514;28;20352;-82
2024/01/19 00:37:38;;;;;;;9.07;1.80;;;;;;;;;;5075652;28;20059;-81
2024/01/19 00:40:11;;;;;;;21.23;3.63;;;;;;;;;;5071308;28;20306;-85
2024/01/19 00:42:38;;;;;;;30.13;6.57;;;;;;;;;;5072983;28;20020;-84
2024/01/19 00:45:05;;;;;;;17.37;3.20;;;;;;;;;;5070955;28;20293;-81
2024/01/19 00:47:30;;;;;;;12.57;2.97;;;;;;;;;;5069538;28;20283;-84
2024/01/19 00:49:59;;;;;;;8.13;2.37;;;;;;;;;;5073842;28;20382;-88
2024/01/19 00:52:25;;;;;;;5.93;2.20;;;;;;;;;;5069299;28;20035;-83
2024/01/19 00:54:51;;;;;;;6.87;1.83;;;;;;;;;;5073131;28;20278;-87
2024/01/19 00:57:19;;;;;;;8.70;2.10;;;;;;;;;;5051066;28;20548;-82
2024/01/19 00:59:45;;;;;;;7.83;2.07;;;;;;;;;;5074192;28;20028;-81
2024/01/19 01:02:11;;;;;;;11.57;2.37;;;;;;;;;;5072132;28;20293;-87
2024/01/19 01:04:39;;;;;;;7.57;2.60;;;;;;;;;;5053258;28;20093;-83
2024/01/19 01:07:05;;;;;;;6.07;1.80;;;;;;;;;;5071858;28;20293;-83
2024/01/19 01:09:31;;;;;;;5.30;1.80;;;;;;;;;;5071424;28;20281;-83
2024/01/19 01:11:57;;;;;;;4.93;1.50;;;;;;;;;;5051819;28;20117;-86
2024/01/19 01:14:23;;;;;;;3.20;1.07;;;;;;;;;;5074811;28;20032;-81
2024/01/19 01:16:49;;;;;;;5.27;1.00;;;;;;;;;;5076948;28;20285;-87
2024/01/19 01:19:17;;;;;;;4.80;1.30;;;;;;;;;;5070341;28;20032;-83
2024/01/19 01:21:43;;;;;;;21.90;3.80;;;;;;;;;;5057242;28;20028;-84
2024/01/19 01:24:09;;;;;;;6.77;1.90;;;;;;;;;;5071898;28;20751;-85
2024/01/19 01:26:38;;;;;;;5.47;1.30;;;;;;;;;;5072249;28;20088;-82
2024/01/19 01:29:04;;;;;;;14.93;3.13;;;;;;;;;;5072456;28;20274;-88
2024/01/19 01:31:32;;;;;;;12.50;2.47;;;;;;;;;;5071474;28;20357;-85
2024/01/19 01:33:58;;;;;;;7.60;2.07;;;;;;;;;;5069998;28;20290;-89
2024/01/19 01:36:25;;;;;;;7.50;1.53;;;;;;;;;;5047836;28;20306;-86
2024/01/19 01:38:53;;;;;;;87.17;12.47;;;;;;;;;;5049896;28;20290;-86
2024/01/19 01:41:19;;;;;;;25.23;4.80;;;;;;;;;;5071921;28;20041;-85
2024/01/19 01:43:45;;;;;;;71.97;11.80;;;;;;;;;;5074167;28;20275;-81
2024/01/19 01:46:12;;;;;;;37.97;6.77;;;;;;;;;;5071371;28;20480;-84
2024/01/19 01:48:38;;;;;;;112.20;17.20;;;;;;;;;;5070276;28;21364;-87
2024/01/19 01:51:07;;;;;;;21.00;5.77;;;;;;;;;;5050994;28;20286;-81
2024/01/19 01:53:33;;;;;;;44.47;7.80;;;;;;;;;;5072096;28;20297;-81
2024/01/19 01:55:59;;;;;;;19.50;3.57;;;;;;;;;;5071530;28;20313;-88
2024/01/19 01:58:25;;;;;;;17.53;3.97;;;;;;;;;;5072562;28;20310;-84
2024/01/19 02:00:54;;;;;;;14.87;3.03;;;;;;;;;;5072319;28;20281;-82
2024/01/19 02:03:20;;;;;;;14.13;3.70;;;;;;;;;;5072203;28;20275;-87
2024/01/19 02:05:46;;;;;;;61.97;9.30;;;;;;;;;;5053359;28;20267;-84
2024/01/19 02:08:12;;;;;;;38.13;7.33;;;;;;;;;;5071381;28;20129;-82
2024/01/19 02:10:41;;;;;;;18.87;4.43;;;;;;;;;;5071957;28;21687;-86
2024/01/19 02:13:07;;;;;;;13.33;3.03;;;;;;;;;;5069767;28;20309;-85
2024/01/19 02:15:35;;;;;;;58.27;8.93;;;;;;;;;;5044638;28;20270;-85
2024/01/19 02:18:01;;;;;;;16.87;2.80;;;;;;;;;;5071426;28;20294;-84
2024/01/19 02:20:27;;;;;;;33.03;4.57;;;;;;;;;;5071754;28;20305;-84
2024/01/19 02:22:53;;;;;;;23.33;5.60;;;;;;;;;;5051777;28;20282;-85
2024/01/19 02:25:19;;;;;;;24.80;4.93;;;;;;;;;;5072343;28;20048;-84
2024/01/19 02:27:48;;;;;;;18.90;4.70;;;;;;;;;;5054303;28;20266;-87
2024/01/19 02:30:14;;;;;;;17.37;3.53;;;;;;;;;;5056106;28;20036;-82
2024/01/19 02:32:40;;;;;;;13.10;2.50;;;;;;;;;;5044512;28;20475;-85
2024/01/19 02:35:08;;;;;;;13.90;3.33;;;;;;;;;;5069503;28;20909;-80
2024/01/19 02:37:34;;;;;;;10.07;2.60;;;;;;;;;;5074027;28;20286;-83
2024/01/19 02:40:00;;;;;;;33.53;6.43;;;;;;;;;;5054862;28;20813;-85
2024/01/19 02:42:26;;;;;;;69.33;10.37;;;;;;;;;;5074284;28;20039;-77
2024/01/19 02:44:52;;;;;;;36.90;7.53;;;;;;;;;;5070936;28;20036;-84
2024/01/19 02:47:18;;;;;;;36.97;8.43;;;;;;;;;;5074580;28;20365;-84
2024/01/19 02:49:44;;;;;;;20.27;4.80;;;;;;;;;;5073359;28;20062;-80
2024/01/19 02:52:10;;;;;;;42.93;7.97;;;;;;;;;;5055560;28;20064;-84
2024/01/19 02:54:39;;;;;;;14.47;4.57;;;;;;;;;;5074537;28;20040;-82
2024/01/19 02:57:05;;;;;;;16.17;4.10;;;;;;;;;;5075523;28;20028;-82
2024/01/19 02:59:31;;;;;;;18.17;3.33;;;;;;;;;;5080466;28;20310;-86
2024/01/19 03:01:59;;;;;;;18.00;3.27;;;;;;;;;;5074687;28;20282;-84
2024/01/19 03:04:25;;;;;;;13.20;3.57;;;;;;;;;;5057129;28;20032;-86
2024/01/19 03:06:53;;;;;;;10.43;2.77;;;;;;;;;;5075921;28;20278;-83
2024/01/19 03:09:19;;;;;;;18.43;3.63;;;;;;;;;;5079259;28;20070;-88
2024/01/19 03:11:48;;;;;;;8.03;2.37;;;;;;;;;;5056131;28;20275;-81
2024/01/19 03:14:14;;;;;;;6.47;1.77;;;;;;;;;;5078416;28;20036;-86
2024/01/19 03:16:44;;;;;;;7.87;2.17;;;;;;;;;;5078338;28;20282;-83
2024/01/19 03:19:10;;;;;;;11.30;2.80;;;;;;;;;;5054522;28;20321;-86
2024/01/19 03:21:39;;;;;;;11.73;3.17;;;;;;;;;;5079666;28;20308;-80
2024/01/19 03:24:07;;;;;;;7.20;2.17;;;;;;;;;;5073484;28;20032;-89
2024/01/19 03:26:35;;;;;;;5.53;1.20;;;;;;;;;;5075667;28;20283;-84
2024/01/19 03:29:03;;;;;;;9.03;2.40;;;;;;;;;;5055120;28;20293;-82
2024/01/19 03:31:32;;;;;;;7.70;2.20;;;;;;;;;;5074331;28;20271;-86
2024/01/19 03:33:58;;;;;;;6.40;1.77;;;;;;;;;;5056800;28;20290;-81
2024/01/19 03:36:24;;;;;;;9.33;1.83;;;;;;;;;;5075490;28;20342;-87
2024/01/19 03:38:50;;;;;;;9.33;2.13;;;;;;;;;;5073844;28;20028;-81
2024/01/19 03:41:18;;;;;;;19.37;4.50;;;;;;;;;;5075231;28;20392;-83
2024/01/19 03:43:44;;;;;;;8.10;3.07;;;;;;;;;;5080937;28;20032;-86
2024/01/19 03:46:11;;;;;;;21.00;5.13;;;;;;;;;;5080248;28;20365;-80
2024/01/19 03:48:37;;;;;;;26.50;5.43;;;;;;;;;;5055892;28;20356;-85
2024/01/19 03:51:03;;;;;;;13.23;3.37;;;;;;;;;;5074945;28;20286;-85
2024/01/19 03:53:29;;;;;;;11.27;3.00;;;;;;;;;;5074336;28;20290;-81
2024/01/19 03:55:55;;;;;;;14.57;3.10;;;;;;;;;;5075184;28;21011;-85
2024/01/19 03:58:21;;;;;;;9.00;2.47;;;;;;;;;;5074761;28;20027;-88
2024/01/19 04:00:47;;;;;;;9.40;2.87;;;;;;;;;;5078234;28;20051;-77
2024/01/19 04:03:13;;;;;;;11.33;3.47;;;;;;;;;;5073353;28;20274;-86
2024/01/19 04:05:38;;;;;;;9.63;3.10;;;;;;;;;;5075759;28;20025;-81
2024/01/19 04:08:05;;;;;;;12.27;3.03;;;;;;;;;;5056930;28;20044;-83
2024/01/19 04:10:30;;;;;;;11.57;2.50;;;;;;;;;;5077226;28;20073;-84
2024/01/19 04:12:56;;;;;;;12.40;2.33;;;;;;;;;;5079318;28;20825;-80
2024/01/19 04:15:22;;;;;;;3.37;1.20;;;;;;;;;;5075459;28;20056;-85
2024/01/19 04:17:51;;;;;;;12.07;2.37;;;;;;;;;;5054480;28;20021;-86
2024/01/19 04:20:16;;;;;;;11.67;3.00;;;;;;;;;;5074430;28;20032;-83
2024/01/19 04:22:45;;;;;;;34.20;6.60;;;;;;;;;;5075235;28;20291;-85
2024/01/19 04:25:11;;;;;;;34.30;6.43;;;;;;;;;;5076788;28;20096;-85
2024/01/19 04:27:37;;;;;;;30.73;6.30;;;;;;;;;;5072331;28;20747;-87
2024/01/19 04:30:03;;;;;;;34.60;7.03;;;;;;;;;;5071010;28;20071;-84
2024/01/19 04:32:29;;;;;;;23.27;3.33;;;;;;;;;;5073252;28;20138;-81
2024/01/19 04:34:55;;;;;;;10.10;2.63;;;;;;;;;;5075452;28;20294;-82
2024/01/19 04:37:21;;;;;;;20.30;5.20;;;;;;;;;;5073172;28;20471;-82
2024/01/19 04:39:47;;;;;;;26.40;5.97;;;;;;;;;;5073867;28;20028;-85
2024/01/19 04:42:13;;;;;;;17.50;3.03;;;;;;;;;;5086183;28;20056;-88
2024/01/19 04:44:39;;;;;;;31.23;5.50;;;;;;;;;;5089466;28;20297;-86
2024/01/19 04:47:05;;;;;;;12.17;3.33;;;;;;;;;;5080407;28;20726;-90
2024/01/19 04:49:31;;;;;;;11.70;2.60;;;;;;;;;;5086055;28;20078;-89
2024/01/19 04:51:57;;;;;;;19.63;3.80;;;;;;;;;;5067944;28;20293;-87
2024/01/19 04:54:23;;;;;;;17.77;3.87;;;;;;;;;;5067330;28;20032;-90
2024/01/19 04:56:49;;;;;;;14.23;3.47;;;;;;;;;;5085869;28;20262;-89
2024/01/19 04:59:18;;;;;;;11.40;2.47;;;;;;;;;;5073747;28;20282;-84
2024/01/19 05:01:46;;;;;;;11.70;2.37;;;;;;;;;;5073490;28;20032;-90
2024/01/19 05:04:12;;;;;;;6.60;2.13;;;;;;;;;;5083969;28;20286;-87
2024/01/19 05:06:42;;;;;;;13.60;2.23;;;;;;;;;;5079539;28;20275;-89
2024/01/19 05:09:08;;;;;;;10.40;2.33;;;;;;;;;;5068654;28;20028;-88
2024/01/19 05:11:34;;;;;;;9.67;1.90;;;;;;;;;;5070574;28;20350;-90
2024/01/19 05:14:02;;;;;;;9.47;1.87;;;;;;;;;;5094798;28;20297;-88
2024/01/19 05:16:31;;;;;;;16.17;3.70;;;;;;;;;;5077186;28;20028;-84
2024/01/19 05:18:57;;;;;;;29.83;5.00;;;;;;;;;;5090528;28;20254;-89
2024/01/19 05:21:23;;;;;;;16.27;4.20;;;;;;;;;;5086242;28;20262;-89
2024/01/19 05:23:49;;;;;;;13.03;3.10;;;;;;;;;;5068809;28;20304;-90
2024/01/19 05:26:17;;;;;;;17.13;3.70;;;;;;;;;;5086717;28;20024;-89
2024/01/19 05:28:43;;;;;;;17.73;3.73;;;;;;;;;;5096147;28;20036;-89
2024/01/19 05:31:11;;;;;;;27.47;4.33;;;;;;;;;;5084618;28;20259;-90
2024/01/19 05:33:38;;;;;;;19.17;4.97;;;;;;;;;;5098541;28;20043;-90
2024/01/19 05:36:05;;;;;;;27.53;5.60;;;;;;;;;;5060248;28;20271;-85
2024/01/19 05:38:31;;;;;;;32.20;6.47;;;;;;;;;;5075321;28;20302;-90
2024/01/19 05:41:01;;;;;;;14.80;3.67;;;;;;;;;;5068010;28;20258;-87
2024/01/19 05:43:29;;;;;;;25.00;5.10;;;;;;;;;;5070911;28;20742;-90
2024/01/19 05:45:55;;;;;;;12.83;3.57;;;;;;;;;;5080313;28;20266;-89
2024/01/19 05:48:22;;;;;;;20.70;3.43;;;;;;;;;;5066529;28;20274;-88
2024/01/19 05:50:52;;;;;;;8.73;2.27;;;;;;;;;;5061300;28;20052;-88
2024/01/19 05:53:18;;;;;;;5.70;1.60;;;;;;;;;;5077594;28;20283;-91
2024/01/19 05:55:44;;;;;;;8.77;1.70;;;;;;;;;;5091290;28;20271;-91
2024/01/19 05:58:10;;;;;;;3.10;0.80;;;;;;;;;;5078881;28;20056;-90
2024/01/19 06:00:36;;;;;;;5.07;1.83;;;;;;;;;;5067137;28;20306;-90
2024/01/19 06:03:02;;;;;;;6.37;1.30;;;;;;;;;;5087334;28;20021;-90
2024/01/19 06:05:28;;;;;;;13.40;2.60;;;;;;;;;;5086873;28;20029;-89
2024/01/19 06:07:56;;;;;;;8.33;2.53;;;;;;;;;;5084222;28;21382;-86
2024/01/19 06:10:22;;;;;;;10.13;2.50;;;;;;;;;;5078546;28;20020;-89
2024/01/19 06:12:51;;;;;;;2.83;1.37;;;;;;;;;;5076874;28;20282;-86
2024/01/19 06:15:16;;;;;;;5.03;1.90;;;;;;;;;;5083267;28;20278;-85
2024/01/19 06:17:42;;;;;;;1.70;0.60;;;;;;;;;;5082663;28;20366;-87
2024/01/19 06:20:09;;;;;;;3.23;0.60;;;;;;;;;;5077098;28;20475;-80
2024/01/19 06:22:37;;;;;;;2.27;0.70;;;;;;;;;;5081072;28;20155;-86
2024/01/19 06:25:03;;;;;;;6.63;1.60;;;;;;;;;;5058601;28;20274;-84
2024/01/19 06:27:32;;;;;;;0.80;0.60;;;;;;;;;;5075050;28;20341;-84
2024/01/19 06:29:58;;;;;;;4.63;1.27;;;;;;;;;;5080333;28;20351;-87
2024/01/19 06:32:26;;;;;;;2.43;1.10;;;;;;;;;;5072646;28;20318;-85
2024/01/19 06:34:52;;;;;;;4.57;0.70;;;;;;;;;;5076427;28;20060;-86
2024/01/19 06:37:18;;;;;;;11.37;2.77;;;;;;;;;;5077693;28;20313;-80
2024/01/19 06:39:48;;;;;;;4.60;1.20;;;;;;;;;;5051547;28;20476;-81
2024/01/19 06:42:19;;;;;;;2.23;1.10;;;;;;;;;;5071349;28;20267;-87
2024/01/19 06:44:45;;;;;;;3.10;0.83;;;;;;;;;;5077162;28;20369;-79
2024/01/19 06:47:11;;;;;;;2.30;0.60;;;;;;;;;;5071881;28;20488;-85
2024/01/19 06:49:37;;;;;;;2.20;0.83;;;;;;;;;;5056039;28;20310;-81
2024/01/19 06:52:07;;;;;;;2.23;0.70;;;;;;;;;;5073716;28;20279;-85
2024/01/19 06:54:33;;;;;;;1.20;0.60;;;;;;;;;;5048964;28;20294;-87
2024/01/19 06:57:02;;;;;;;5.40;0.80;;;;;;;;;;5052807;28;20314;-88
2024/01/19 06:59:28;;;;;;;2.70;0.90;;;;;;;;;;5073958;28;20271;-82
2024/01/19 07:01:54;;;;;;;5.43;1.30;;;;;;;;;;5053955;28;20290;-86
2024/01/19 07:04:22;;;;;;;7.83;2.00;;;;;;;;;;5072613;28;20047;-88
2024/01/19 07:06:48;;;;;;;3.87;1.30;;;;;;;;;;5072670;28;20059;-85
2024/01/19 07:09:15;;;;;;;6.17;1.43;;;;;;;;;;5051664;28;20281;-88
2024/01/19 07:11:41;;;;;;;4.30;1.30;;;;;;;;;;5074535;28;20290;-89
2024/01/19 07:14:09;;;;;;;5.10;1.20;;;;;;;;;;5053918;28;20290;-85
2024/01/19 07:16:38;;;;;;;3.37;1.40;;;;;;;;;;5078171;28;20070;-81
2024/01/19 07:19:04;;;;;;;6.17;1.40;;;;;;;;;;5071724;28;20742;-84
2024/01/19 07:21:30;;;;;;;2.43;1.00;;;;;;;;;;5076036;28;20279;-81
2024/01/19 07:23:56;;;;;;;3.70;1.00;;;;;;;;;;5071624;28;20024;-81
2024/01/19 07:26:25;;;;;;;6.30;1.43;;;;;;;;;;5073290;28;20090;-85
2024/01/19 07:28:51;;;;;;;6.23;1.10;;;;;;;;;;5055964;28;20132;-79
2024/01/19 07:31:19;;;;;;;4.50;1.43;;;;;;;;;;5077569;28;20313;-81
2024/01/19 07:33:45;;;;;;;5.27;1.07;;;;;;;;;;5074018;28;20317;-85
2024/01/19 07:36:15;;;;;;;11.90;2.10;;;;;;;;;;5076818;28;20278;-82
2024/01/19 07:38:41;;;;;;;6.20;1.43;;;;;;;;;;5075641;28;20524;-84
2024/01/19 07:41:07;;;;;;;4.57;1.40;;;;;;;;;;5075567;28;20353;-87
2024/01/19 07:43:33;;;;;;;3.03;1.10;;;;;;;;;;5074525;28;20287;-84
2024/01/19 07:45:59;;;;;;;3.20;1.07;;;;;;;;;;5076293;28;20807;-83
2024/01/19 07:48:30;;;;;;;4.97;1.00;;;;;;;;;;5057523;28;20305;-84
2024/01/19 07:50:56;;;;;;;2.73;0.90;;;;;;;;;;5073213;28;20280;-84
2024/01/19 07:53:25;;;;;;;2.90;0.90;;;;;;;;;;5069940;28;20297;-88
2024/01/19 07:55:51;;;;;;;2.20;1.27;;;;;;;;;;5050034;28;20465;-82
2024/01/19 07:58:17;;;;;;;4.87;0.90;;;;;;;;;;5069389;28;20285;-87
2024/01/19 08:00:45;;;;;;;6.53;1.20;;;;;;;;;;5070086;28;20351;-80
2024/01/19 08:03:11;;;;;;;6.57;1.80;;;;;;;;;;5051912;28;20278;-88
2024/01/19 08:05:37;;;;;;;5.27;1.33;;;;;;;;;;5071248;28;20290;-83
2024/01/19 08:08:03;;;;;;;7.93;2.30;;;;;;;;;;5071067;28;20285;-84
2024/01/19 08:10:32;;;;;;;6.57;1.67;;;;;;;;;;5073271;28;20303;-86
2024/01/19 08:13:00;;;;;;;8.73;1.83;;;;;;;;;;5073484;28;20267;-75
2024/01/19 08:15:28;;;;;;;10.07;2.00;;;;;;;;;;5072718;28;20381;-84
2024/01/19 08:18:00;;;;;;;8.13;1.50;;;;;;;;;;5069657;28;20397;-83
2024/01/19 08:20:26;;;;;;;12.60;2.73;;;;;;;;;;5069751;28;20281;-79
2024/01/19 08:22:55;;;;;;;7.10;1.47;;;;;;;;;;5052580;28;20286;-84
2024/01/19 08:25:21;;;;;;;3.23;1.40;;;;;;;;;;5074075;28;20017;-84
2024/01/19 08:27:47;;;;;;;13.53;3.10;;;;;;;;;;5070203;28;20304;-88
2024/01/19 08:30:16;;;;;;;32.80;6.33;;;;;;;;;;5073460;28;20295;-80
2024/01/19 08:32:42;;;;;;;18.40;3.77;;;;;;;;;;5073323;28;20290;-88
2024/01/19 08:35:08;;;;;;;11.77;3.00;;;;;;;;;;5058197;28;20286;-86
2024/01/19 08:37:38;;;;;;;11.83;2.50;;;;;;;;;;5052331;28;20282;-86
2024/01/19 08:40:08;;;;;;;7.73;2.07;;;;;;;;;;5053692;28;20294;-81
2024/01/19 08:42:34;;;;;;;8.33;2.00;;;;;;;;;;5072795;28;20611;-82
2024/01/19 08:45:02;;;;;;;12.17;2.33;;;;;;;;;;5075086;28;20286;-85
2024/01/19 08:47:28;;;;;;;6.03;2.00;;;;;;;;;;5078293;28;20283;-83
2024/01/19 08:49:56;;;;;;;5.37;1.60;;;;;;;;;;5053267;28;20363;-83
2024/01/19 08:52:22;;;;;;;6.93;1.70;;;;;;;;;;5056179;28;20033;-80
2024/01/19 08:54:48;;;;;;;4.30;1.50;;;;;;;;;;5057194;28;20294;-85
2024/01/19 08:57:16;;;;;;;3.77;1.50;;;;;;;;;;5075706;28;20286;-80
2024/01/19 08:59:42;;;;;;;3.50;1.67;;;;;;;;;;5075624;28;20040;-83
2024/01/19 09:02:08;;;;;;;3.23;1.17;;;;;;;;;;5055559;28;20298;-80
2024/01/19 09:04:34;;;;;;;5.23;1.60;;;;;;;;;;5072091;28;20036;-82
2024/01/19 09:07:00;;;;;;;3.10;1.20;;;;;;;;;;5071490;28;20354;-89
2024/01/19 09:09:26;;;;;;;6.30;1.33;;;;;;;;;;5077772;28;20039;-79
2024/01/19 09:11:53;;;;;;;2.67;1.33;;;;;;;;;;5073597;28;20428;-87
2024/01/19 09:14:20;;;;;;;5.90;1.47;;;;;;;;;;5054094;28;20290;-84
2024/01/19 09:16:46;;;;;;;2.57;1.20;;;;;;;;;;5074583;28;20377;-83
2024/01/19 09:19:13;;;;;;;3.17;1.17;;;;;;;;;;5074129;28;20271;-80
2024/01/19 09:21:45;;;;;;;4.07;1.40;;;;;;;;;;5070355;28;20288;-82
2024/01/19 09:24:14;;;;;;;5.05;1.48;;;;;;;;;;5069933;28;21282;-87
2024/01/19 09:26:40;;;;;;;3.10;1.20;;;;;;;;;;5071293;28;20033;-86
2024/01/19 09:29:10;;;;;;;2.90;1.30;;;;;;;;;;5074660;28;20302;-83
2024/01/19 09:31:46;;;;;;;1.43;0.97;;;;;;;;;;5073655;28;20380;-84
2024/01/19 09:34:15;;;;;;;2.03;0.90;;;;;;;;;;5077897;28;20291;-82
2024/01/19 09:36:41;;;;;;;11.10;2.87;;;;;;;;;;5069980;28;20274;-84
2024/01/19 09:39:10;;;;;;;24.93;5.60;;;;;;;;;;5071736;28;20266;-78
2024/01/19 09:41:42;;;;;;;14.83;5.40;;;;;;;;;;5071437;28;20275;-79
2024/01/19 09:44:09;;;;;;;19.67;4.30;;;;;;;;;;5070218;28;20286;-84
2024/01/19 09:46:38;;;;;;;17.70;4.17;;;;;;;;;;5077026;28;20067;-86
2024/01/19 09:49:22;;;;;;;13.47;3.50;;;;;;;;;;5071847;28;20282;-82
2024/01/19 09:51:58;;;;;;;4.97;2.07;;;;;;;;;;5069746;28;20289;-81
2024/01/19 09:54:29;;;;;;;33.07;6.67;;;;;;;;;;5070395;28;20290;-82
2024/01/19 09:56:54;;;;;;;14.97;3.17;;;;;;;;;;5072646;28;20351;-84
2024/01/19 09:59:23;;;;;;;28.30;6.77;;;;;;;;;;5072338;28;20358;-84
2024/01/19 10:01:53;;;;;;;32.27;7.53;;;;;;;;;;5072049;28;20029;-81
2024/01/19 10:04:21;;;;;;;40.40;7.13;;;;;;;;;;5072978;28;20293;-83
2024/01/19 10:06:47;;;;;;;37.03;7.57;;;;;;;;;;5072332;28;20278;-79
2024/01/19 10:09:14;;;;;;;28.10;6.50;;;;;;;;;;5072737;28;20674;-78
2024/01/19 10:11:41;;;;;;;37.30;7.67;;;;;;;;;;5075811;28;20032;-84
2024/01/19 10:14:07;;;;;;;50.57;10.13;;;;;;;;;;5073136;28;20405;-82
2024/01/19 10:16:38;;;;;;;51.23;10.27;;;;;;;;;;5071521;28;20440;-81
2024/01/19 10:19:04;;;;;;;34.07;6.70;;;;;;;;;;5073350;28;20533;-84
2024/01/19 10:21:30;;;;;;;42.67;10.17;;;;;;;;;;5071456;28;20298;-83
2024/01/19 10:24:14;;;;;;;60.43;11.27;;;;;;;;;;5055534;28;20302;-82
2024/01/19 10:26:43;;;;;;;182.97;31.80;;;;;;;;;;5071685;28;20554;-84
2024/01/19 10:29:10;;;;;;;106.67;17.83;;;;;;;;;;5074159;28;20282;-81
2024/01/19 10:31:39;;;;;;;50.43;10.73;;;;;;;;;;5073565;28;20338;-79
2024/01/19 10:34:05;;;;;;;89.07;11.87;;;;;;;;;;5073004;28;20334;-82
2024/01/19 10:36:39;;;;;;;125.83;20.37;;;;;;;;;;5076756;28;20327;-85
2024/01/19 10:39:34;;;;;;;177.43;29.70;;;;;;;;;;5072822;28;20282;-87
2024/01/19 10:42:04;;;;;;;66.83;11.10;;;;;;;;;;5052035;28;20282;-88
2024/01/19 10:44:32;;;;;;;94.77;16.00;;;;;;;;;;5093981;28;20314;-87
2024/01/19 10:46:59;;;;;;;56.13;9.93;;;;;;;;;;5090588;28;20329;-90
2024/01/19 10:49:24;;;;;;;43.60;8.57;;;;;;;;;;5074512;28;20295;-86
2024/01/19 10:51:51;;;;;;;20.83;6.17;;;;;;;;;;5079078;28;20328;-86
2024/01/19 10:54:24;;;;;;;32.07;6.67;;;;;;;;;;5086473;28;20025;-89
2024/01/19 10:57:06;;;;;;;69.27;12.07;;;;;;;;;;5086339;28;20563;-89
2024/01/19 10:59:34;;;;;;;157.53;23.67;;;;;;;;;;5075668;28;20715;-88
2024/01/19 11:02:02;;;;;;;107.80;17.57;;;;;;;;;;5078121;28;20278;-86
2024/01/19 11:04:28;;;;;;;33.77;7.70;;;;;;;;;;5061424;28;20273;-88
2024/01/19 11:06:54;;;;;;;55.40;10.30;;;;;;;;;;5072892;28;20303;-90
2024/01/19 11:09:23;;;;;;;145.77;21.97;;;;;;;;;;5084251;28;20046;-86
2024/01/19 11:11:58;;;;;;;46.30;10.77;;;;;;;;;;5081995;28;20267;-90
2024/01/19 11:14:25;;;;;;;58.17;12.97;;;;;;;;;;5092396;28;20726;-86
2024/01/19 11:16:54;;;;;;;33.93;7.73;;;;;;;;;;5091439;28;20243;-86
2024/01/19 11:19:22;;;;;;;20.53;6.27;;;;;;;;;;5085096;28;20255;-86
2024/01/19 11:21:48;;;;;;;38.60;7.53;;;;;;;;;;5080193;28;20259;-90
2024/01/19 11:24:15;;;;;;;34.30;8.47;;;;;;;;;;5089632;28;20334;-89
2024/01/19 11:26:50;;;;;;;35.40;8.43;;;;;;;;;;5064307;28;20338;-89
2024/01/19 11:29:19;;;;;;;88.43;14.03;;;;;;;;;;5099054;28;20267;-89
2024/01/19 11:31:46;;;;;;;36.10;7.80;;;;;;;;;;5072326;28;20647;-89
2024/01/19 11:34:33;;;;;;;39.63;7.97;;;;;;;;;;5088685;28;20317;-90
2024/01/19 11:36:59;;;;;;;47.90;9.03;;;;;;;;;;5066662;28;20319;-80
2024/01/19 11:39:38;;;;;;;50.50;8.40;;;;;;;;;;5081972;28;20328;-89
2024/01/19 11:42:04;;;;;;;21.97;4.83;;;;;;;;;;5073037;28;20025;-90
2024/01/19 11:44:49;;;;;;;50.87;9.13;;;;;;;;;;5101971;28;20273;-89
2024/01/19 11:47:35;;;;;;;61.43;13.00;;;;;;;;;;5073520;28;20314;-88
2024/01/19 11:50:04;;;;;;;54.83;11.83;;;;;;;;;;5075413;28;20596;-84
2024/01/19 11:52:35;;;;;;;49.17;11.80;;;;;;;;;;5072956;28;20278;-85
2024/01/19 11:55:20;;;;;;;48.50;11.97;;;;;;;;;;5083090;28;20300;-89
2024/01/19 11:57:48;;;;;;;46.50;9.83;;;;;;;;;;5079929;28;20251;-90
2024/01/19 12:00:14;;;;;;;39.10;9.03;;;;;;;;;;5083679;28;20271;-89
2024/01/19 12:02:41;;;;;;;42.63;10.93;;;;;;;;;;5088984;28;20262;-90
2024/01/19 12:05:10;;;;;;;22.67;6.60;;;;;;;;;;5085903;28;20274;-85
2024/01/19 12:07:36;;;;;;;17.77;5.17;;;;;;;;;;5087616;28;20308;-82
2024/01/19 12:10:12;;;;;;;10.50;3.87;;;;;;;;;;5082348;28;20606;-89
2024/01/19 12:12:38;;;;;;;7.60;3.03;;;;;;;;;;5084988;28;20067;-90
2024/01/19 12:15:05;;;;;;;20.50;5.90;;;;;;;;;;5080093;28;20289;-90
2024/01/19 12:17:32;;;;;;;27.87;7.10;;;;;;;;;;5087221;28;20340;-85
2024/01/19 12:19:58;;;;;;;15.67;4.80;;;;;;;;;;5056655;28;20467;-82
2024/01/19 12:22:24;;;;;;;47.97;10.77;;;;;;;;;;5081419;28;20305;-86
2024/01/19 12:24:50;;;;;;;37.00;8.47;;;;;;;;;;5081047;28;20423;-85
2024/01/19 12:27:20;;;;;;;41.53;10.37;;;;;;;;;;5078447;28;20921;-87
2024/01/19 12:29:46;;;;;;;28.03;8.20;;;;;;;;;;5077796;28;20100;-88
2024/01/19 12:32:21;;;;;;;31.17;8.23;;;;;;;;;;5081544;28;20326;-84
2024/01/19 12:34:57;;;;;;;19.87;5.43;;;;;;;;;;5076516;28;20036;-82
2024/01/19 12:37:23;;;;;;;12.40;4.67;;;;;;;;;;5079758;28;20282;-83
2024/01/19 12:39:49;;;;;;;18.87;5.73;;;;;;;;;;5079016;28;20277;-85
2024/01/19 12:42:15;;;;;;;29.00;7.67;;;;;;;;;;5076799;28;20314;-81
2024/01/19 12:44:44;;;;;;;21.13;5.50;;;;;;;;;;5058177;28;20066;-83
2024/01/19 12:47:11;;;;;;;18.27;4.80;;;;;;;;;;5079992;28;20283;-84
2024/01/19 12:49:38;;;;;;;14.83;5.00;;;;;;;;;;5078071;28;20283;-84
2024/01/19 12:52:04;;;;;;;15.37;3.63;;;;;;;;;;5060710;28;20290;-79
2024/01/19 12:54:43;;;;;;;10.10;3.63;;;;;;;;;;5078932;28;20291;-83
2024/01/19 12:57:16;;;;;;;24.03;6.80;;;;;;;;;;5081264;28;20304;-84
2024/01/19 12:59:42;;;;;;;16.97;5.37;;;;;;;;;;5075815;28;20364;-86
2024/01/19 13:02:11;;;;;;;25.50;6.40;;;;;;;;;;5077939;28;20275;-84
2024/01/19 13:04:37;;;;;;;11.73;3.20;;;;;;;;;;5055787;28;20036;-79
2024/01/19 13:07:04;;;;;;;39.23;9.63;;;;;;;;;;5076333;28;20328;-87
2024/01/19 13:09:30;;;;;;;27.13;7.70;;;;;;;;;;5077216;28;20294;-85
2024/01/19 13:12:15;;;;;;;35.20;8.07;;;;;;;;;;5076125;28;20331;-88
2024/01/19 13:14:41;;;;;;;72.53;15.77;;;;;;;;;;5075372;28;20033;-82
2024/01/19 13:17:09;;;;;;;28.87;7.93;;;;;;;;;;5074732;28;20397;-84
2024/01/19 13:19:44;;;;;;;45.97;11.83;;;;;;;;;;5075573;28;20323;-82
2024/01/19 13:22:10;;;;;;;33.23;6.83;;;;;;;;;;5072557;28;20358;-82
2024/01/19 13:24:36;;;;;;;51.97;10.90;;;;;;;;;;5053997;28;20385;-86
2024/01/19 13:27:03;;;;;;;27.93;6.97;;;;;;;;;;5055714;28;20040;-80
2024/01/19 13:29:31;;;;;;;17.23;5.53;;;;;;;;;;5076641;28;20286;-82
2024/01/19 13:31:57;;;;;;;33.63;7.30;;;;;;;;;;5057728;28;21023;-87
2024/01/19 13:34:27;;;;;;;27.47;7.60;;;;;;;;;;5057005;28;20290;-82
2024/01/19 13:36:53;;;;;;;38.83;10.13;;;;;;;;;;5075687;28;20357;-85
2024/01/19 13:39:21;;;;;;;33.00;8.17;;;;;;;;;;5078096;28;20267;-85
2024/01/19 13:41:48;;;;;;;105.37;21.83;;;;;;;;;;5054137;28;20287;-84
2024/01/19 13:44:16;;;;;;;48.03;9.73;;;;;;;;;;5075623;28;20286;-88
2024/01/19 13:46:44;;;;;;;33.93;8.50;;;;;;;;;;5075377;28;20278;-83
2024/01/19 13:49:10;;;;;;;30.70;8.57;;;;;;;;;;5074603;28;20494;-85
2024/01/19 13:51:36;;;;;;;116.60;20.73;;;;;;;;;;5062266;28;20286;-81
2024/01/19 13:54:02;;;;;;;8.70;3.83;;;;;;;;;;5056958;28;20040;-84
2024/01/19 13:56:33;;;;;;;39.23;9.77;;;;;;;;;;5073190;28;20289;-85
2024/01/19 13:58:59;;;;;;;66.17;13.57;;;;;;;;;;5061093;28;21227;-87
2024/01/19 14:01:27;;;;;;;28.37;7.33;;;;;;;;;;5072831;28;20789;-81
2024/01/19 14:03:53;;;;;;;33.23;7.03;;;;;;;;;;5055735;28;20041;-85
2024/01/19 14:06:20;;;;;;;20.90;4.73;;;;;;;;;;5057404;28;20336;-84
2024/01/19 14:08:46;;;;;;;82.03;16.77;;;;;;;;;;5073376;28;20308;-81
2024/01/19 14:11:13;;;;;;;13.30;4.57;;;;;;;;;;5072188;28;20286;-88
2024/01/19 14:13:40;;;;;;;14.30;4.03;;;;;;;;;;5073840;28;20765;-84
2024/01/19 14:16:06;;;;;;;22.30;4.70;;;;;;;;;;5074835;28;20282;-86
2024/01/19 14:18:32;;;;;;;48.97;10.70;;;;;;;;;;5075350;28;20278;-85
2024/01/19 14:20:58;;;;;;;47.93;9.77;;;;;;;;;;5053351;28;20387;-84
2024/01/19 14:23:24;;;;;;;46.93;10.03;;;;;;;;;;5074650;28;20295;-91
2024/01/19 14:25:51;;;;;;;100.67;20.27;;;;;;;;;;5054512;28;20275;-86
2024/01/19 14:28:20;;;;;;;74.57;13.73;;;;;;;;;;5072539;28;20271;-89
2024/01/19 14:30:46;;;;;;;23.03;6.53;;;;;;;;;;5076274;28;20309;-86
2024/01/19 14:33:12;;;;;;;31.40;7.83;;;;;;;;;;5064283;28;20301;-88
2024/01/19 14:35:43;;;;;;;94.20;17.97;;;;;;;;;;5079802;28;20286;-87